sensor_id;sensor_type;location;lat;lon;timestamp;P1;durP1;ratioP1;P2;durP2;ratioP2
42194;SDS011;27863;49.440;11.102;2023-09-18T00:02:32;6.05;;;5.65;;
42194;SDS011;27863;49.440;11.102;2023-09-18T00:05:33;6.20;;;5.60;;
42194;SDS011;27863;49.440;11.102;2023-09-18T00:08:34;5.90;;;5.50;;
42194;SDS011;27863;49.440;11.102;2023-09-18T00:11:35;5.80;;;5.40;;
42194;SDS011;27863;49.440;11.102;2023-09-18T00:14:36;5.82;;;5.43;;
42194;SDS011;27863;49.440;11.102;2023-09-18T00:17:37;5.95;;;5.45;;
42194;SDS011;27863;49.440;11.102;2023-09-18T00:20:40;5.95;;;5.55;;
42194;SDS011;27863;49.440;11.102;2023-09-18T00:23:41;5.55;;;5.22;;
42194;SDS011;27863;49.440;11.102;2023-09-18T00:26:43;6.35;;;5.85;;
42194;SDS011;27863;49.440;11.102;2023-09-18T00:29:46;5.93;;;5.53;;
42194;SDS011;27863;49.440;11.102;2023-09-18T00:32:46;5.78;;;5.38;;
42194;SDS011;27863;49.440;11.102;2023-09-18T00:35:47;6.22;;;5.70;;
42194;SDS011;27863;49.440;11.102;2023-09-18T00:38:48;6.25;;;5.65;;
42194;SDS011;27863;49.440;11.102;2023-09-18T00:41:50;6.25;;;5.75;;
42194;SDS011;27863;49.440;11.102;2023-09-18T00:44:54;5.57;;;5.18;;
42194;SDS011;27863;49.440;11.102;2023-09-18T00:47:55;6.10;;;5.50;;
42194;SDS011;27863;49.440;11.102;2023-09-18T00:50:55;6.30;;;5.90;;
42194;SDS011;27863;49.440;11.102;2023-09-18T00:53:56;6.38;;;5.80;;
42194;SDS011;27863;49.440;11.102;2023-09-18T00:56:57;6.35;;;5.80;;
42194;SDS011;27863;49.440;11.102;2023-09-18T00:59:58;7.38;;;6.88;;
42194;SDS011;27863;49.440;11.102;2023-09-18T01:02:59;5.85;;;5.40;;
42194;SDS011;27863;49.440;11.102;2023-09-18T01:06:03;6.35;;;5.88;;
42194;SDS011;27863;49.440;11.102;2023-09-18T01:09:04;6.25;;;5.75;;
42194;SDS011;27863;49.440;11.102;2023-09-18T01:15:33;6.50;;;6.00;;
42194;SDS011;27863;49.440;11.102;2023-09-18T01:18:35;6.85;;;6.15;;
42194;SDS011;27863;49.440;11.102;2023-09-18T01:21:36;5.57;;;5.20;;
42194;SDS011;27863;49.440;11.102;2023-09-18T01:24:37;6.93;;;6.43;;
42194;SDS011;27863;49.440;11.102;2023-09-18T01:27:38;6.57;;;6.05;;
42194;SDS011;27863;49.440;11.102;2023-09-18T01:30:39;6.28;;;5.88;;
42194;SDS011;27863;49.440;11.102;2023-09-18T01:33:39;6.40;;;5.93;;
42194;SDS011;27863;49.440;11.102;2023-09-18T01:36:40;5.85;;;5.45;;
42194;SDS011;27863;49.440;11.102;2023-09-18T01:39:41;7.55;;;6.82;;
42194;SDS011;27863;49.440;11.102;2023-09-18T01:42:42;6.38;;;5.97;;
42194;SDS011;27863;49.440;11.102;2023-09-18T01:45:43;7.22;;;6.72;;
42194;SDS011;27863;49.440;11.102;2023-09-18T01:48:45;6.43;;;5.93;;
42194;SDS011;27863;49.440;11.102;2023-09-18T01:51:47;8.20;;;6.03;;
42194;SDS011;27863;49.440;11.102;2023-09-18T01:54:50;6.90;;;6.40;;
42194;SDS011;27863;49.440;11.102;2023-09-18T01:57:51;6.43;;;5.75;;
42194;SDS011;27863;49.440;11.102;2023-09-18T02:00:53;6.53;;;6.03;;
42194;SDS011;27863;49.440;11.102;2023-09-18T02:03:54;6.00;;;5.50;;
42194;SDS011;27863;49.440;11.102;2023-09-18T02:06:55;5.72;;;5.22;;
42194;SDS011;27863;49.440;11.102;2023-09-18T02:09:56;5.78;;;5.28;;
42194;SDS011;27863;49.440;11.102;2023-09-18T02:12:56;6.63;;;6.13;;
42194;SDS011;27863;49.440;11.102;2023-09-18T02:15:57;6.65;;;5.80;;
42194;SDS011;27863;49.440;11.102;2023-09-18T02:18:57;6.47;;;6.07;;
42194;SDS011;27863;49.440;11.102;2023-09-18T02:21:57;5.75;;;5.35;;
42194;SDS011;27863;49.440;11.102;2023-09-18T02:24:58;6.20;;;5.80;;
42194;SDS011;27863;49.440;11.102;2023-09-18T02:27:58;6.30;;;5.80;;
42194;SDS011;27863;49.440;11.102;2023-09-18T02:30:59;5.65;;;5.25;;
42194;SDS011;27863;49.440;11.102;2023-09-18T02:33:59;5.85;;;5.45;;
42194;SDS011;27863;49.440;11.102;2023-09-18T02:37:00;5.85;;;5.43;;
42194;SDS011;27863;49.440;11.102;2023-09-18T02:40:01;6.13;;;5.70;;
42194;SDS011;27863;49.440;11.102;2023-09-18T02:43:02;5.38;;;4.88;;
42194;SDS011;27863;49.440;11.102;2023-09-18T02:46:03;6.07;;;5.63;;
42194;SDS011;27863;49.440;11.102;2023-09-18T02:49:05;5.95;;;5.45;;
42194;SDS011;27863;49.440;11.102;2023-09-18T02:52:06;5.82;;;5.38;;
42194;SDS011;27863;49.440;11.102;2023-09-18T02:55:06;5.75;;;5.25;;
42194;SDS011;27863;49.440;11.102;2023-09-18T02:58:07;6.30;;;5.80;;
42194;SDS011;27863;49.440;11.102;2023-09-18T03:01:09;5.93;;;5.53;;
42194;SDS011;27863;49.440;11.102;2023-09-18T03:04:10;6.20;;;5.80;;
42194;SDS011;27863;49.440;11.102;2023-09-18T03:07:12;5.80;;;5.40;;
42194;SDS011;27863;49.440;11.102;2023-09-18T03:10:13;5.55;;;5.05;;
42194;SDS011;27863;49.440;11.102;2023-09-18T03:13:16;5.68;;;5.18;;
42194;SDS011;27863;49.440;11.102;2023-09-18T03:16:16;5.55;;;5.15;;
42194;SDS011;27863;49.440;11.102;2023-09-18T03:19:18;5.00;;;4.63;;
42194;SDS011;27863;49.440;11.102;2023-09-18T03:22:22;6.43;;;5.93;;
42194;SDS011;27863;49.440;11.102;2023-09-18T03:25:23;5.90;;;5.35;;
42194;SDS011;27863;49.440;11.102;2023-09-18T03:28:24;6.60;;;6.07;;
42194;SDS011;27863;49.440;11.102;2023-09-18T03:31:25;6.28;;;5.82;;
42194;SDS011;27863;49.440;11.102;2023-09-18T03:34:26;6.35;;;5.78;;
42194;SDS011;27863;49.440;11.102;2023-09-18T03:37:27;5.88;;;5.38;;
42194;SDS011;27863;49.440;11.102;2023-09-18T03:40:27;5.75;;;5.35;;
42194;SDS011;27863;49.440;11.102;2023-09-18T03:43:29;6.38;;;5.78;;
42194;SDS011;27863;49.440;11.102;2023-09-18T03:46:30;6.97;;;5.55;;
42194;SDS011;27863;49.440;11.102;2023-09-18T03:49:31;6.70;;;6.10;;
42194;SDS011;27863;49.440;11.102;2023-09-18T03:52:32;6.28;;;5.88;;
42194;SDS011;27863;49.440;11.102;2023-09-18T03:55:32;5.88;;;5.47;;
42194;SDS011;27863;49.440;11.102;2023-09-18T03:58:33;6.30;;;5.80;;
42194;SDS011;27863;49.440;11.102;2023-09-18T04:01:34;6.45;;;5.90;;
42194;SDS011;27863;49.440;11.102;2023-09-18T04:04:36;6.15;;;5.72;;
42194;SDS011;27863;49.440;11.102;2023-09-18T04:07:37;5.65;;;5.22;;
42194;SDS011;27863;49.440;11.102;2023-09-18T04:10:38;6.05;;;5.65;;
42194;SDS011;27863;49.440;11.102;2023-09-18T04:13:39;6.45;;;5.85;;
42194;SDS011;27863;49.440;11.102;2023-09-18T04:16:39;6.25;;;5.70;;
42194;SDS011;27863;49.440;11.102;2023-09-18T04:19:42;5.88;;;5.47;;
42194;SDS011;27863;49.440;11.102;2023-09-18T04:22:44;6.07;;;5.57;;
42194;SDS011;27863;49.440;11.102;2023-09-18T04:25:50;5.72;;;5.32;;
42194;SDS011;27863;49.440;11.102;2023-09-18T04:28:52;6.75;;;6.20;;
42194;SDS011;27863;49.440;11.102;2023-09-18T04:31:53;7.35;;;6.20;;
42194;SDS011;27863;49.440;11.102;2023-09-18T04:34:54;5.93;;;5.53;;
42194;SDS011;27863;49.440;11.102;2023-09-18T04:37:56;6.10;;;5.70;;
42194;SDS011;27863;49.440;11.102;2023-09-18T04:40:59;6.65;;;6.15;;
42194;SDS011;27863;49.440;11.102;2023-09-18T04:44:02;5.97;;;5.50;;
42194;SDS011;27863;49.440;11.102;2023-09-18T04:47:04;6.68;;;6.15;;
42194;SDS011;27863;49.440;11.102;2023-09-18T04:50:07;6.55;;;6.05;;
42194;SDS011;27863;49.440;11.102;2023-09-18T04:53:09;8.07;;;7.38;;
42194;SDS011;27863;49.440;11.102;2023-09-18T04:56:11;5.32;;;4.93;;
42194;SDS011;27863;49.440;11.102;2023-09-18T04:59:11;6.47;;;5.88;;
42194;SDS011;27863;49.440;11.102;2023-09-18T05:02:15;5.85;;;5.35;;
42194;SDS011;27863;49.440;11.102;2023-09-18T05:05:17;6.22;;;5.63;;
42194;SDS011;27863;49.440;11.102;2023-09-18T05:08:18;5.85;;;5.35;;
42194;SDS011;27863;49.440;11.102;2023-09-18T05:11:22;6.32;;;5.93;;
42194;SDS011;27863;49.440;11.102;2023-09-18T05:14:24;5.85;;;5.35;;
42194;SDS011;27863;49.440;11.102;2023-09-18T05:17:47;9.35;;;4.75;;
42194;SDS011;27863;49.440;11.102;2023-09-18T05:20:52;5.97;;;5.57;;
42194;SDS011;27863;49.440;11.102;2023-09-18T05:23:52;6.28;;;5.78;;
42194;SDS011;27863;49.440;11.102;2023-09-18T05:26:53;5.38;;;4.88;;
42194;SDS011;27863;49.440;11.102;2023-09-18T05:29:55;6.25;;;5.75;;
42194;SDS011;27863;49.440;11.102;2023-09-18T05:32:55;5.85;;;5.45;;
42194;SDS011;27863;49.440;11.102;2023-09-18T05:35:56;5.82;;;5.32;;
42194;SDS011;27863;49.440;11.102;2023-09-18T05:38:58;6.28;;;5.78;;
42194;SDS011;27863;49.440;11.102;2023-09-18T05:41:58;6.35;;;5.75;;
42194;SDS011;27863;49.440;11.102;2023-09-18T05:44:59;8.45;;;7.20;;
42194;SDS011;27863;49.440;11.102;2023-09-18T05:48:01;7.47;;;5.05;;
42194;SDS011;27863;49.440;11.102;2023-09-18T05:51:04;5.47;;;4.97;;
42194;SDS011;27863;49.440;11.102;2023-09-18T05:54:04;6.65;;;6.15;;
42194;SDS011;27863;49.440;11.102;2023-09-18T05:57:05;7.00;;;6.50;;
42194;SDS011;27863;49.440;11.102;2023-09-18T06:00:07;6.75;;;6.15;;
42194;SDS011;27863;49.440;11.102;2023-09-18T06:03:13;8.18;;;5.72;;
42194;SDS011;27863;49.440;11.102;2023-09-18T06:06:16;6.53;;;5.93;;
42194;SDS011;27863;49.440;11.102;2023-09-18T06:09:17;7.38;;;6.70;;
42194;SDS011;27863;49.440;11.102;2023-09-18T06:12:21;6.88;;;6.20;;
42194;SDS011;27863;49.440;11.102;2023-09-18T06:15:22;6.15;;;5.75;;
42194;SDS011;27863;49.440;11.102;2023-09-18T06:18:22;8.57;;;5.85;;
42194;SDS011;27863;49.440;11.102;2023-09-18T06:21:23;9.38;;;5.60;;
42194;SDS011;27863;49.440;11.102;2023-09-18T06:24:24;6.22;;;5.72;;
42194;SDS011;27863;49.440;11.102;2023-09-18T06:27:24;6.63;;;6.03;;
42194;SDS011;27863;49.440;11.102;2023-09-18T06:30:25;11.15;;;5.93;;
42194;SDS011;27863;49.440;11.102;2023-09-18T06:33:29;7.93;;;5.80;;
42194;SDS011;27863;49.440;11.102;2023-09-18T06:36:30;7.20;;;6.30;;
42194;SDS011;27863;49.440;11.102;2023-09-18T06:39:30;5.85;;;5.20;;
42194;SDS011;27863;49.440;11.102;2023-09-18T06:42:31;6.25;;;5.60;;
42194;SDS011;27863;49.440;11.102;2023-09-18T06:45:32;5.32;;;4.93;;
42194;SDS011;27863;49.440;11.102;2023-09-18T06:48:35;9.40;;;6.20;;
42194;SDS011;27863;49.440;11.102;2023-09-18T06:51:36;4.93;;;4.63;;
42194;SDS011;27863;49.440;11.102;2023-09-18T06:54:40;5.53;;;5.13;;
42194;SDS011;27863;49.440;11.102;2023-09-18T06:57:41;5.57;;;5.07;;
42194;SDS011;27863;49.440;11.102;2023-09-18T07:00:41;5.07;;;4.57;;
42194;SDS011;27863;49.440;11.102;2023-09-18T07:03:42;5.13;;;4.68;;
42194;SDS011;27863;49.440;11.102;2023-09-18T07:06:43;5.28;;;4.88;;
42194;SDS011;27863;49.440;11.102;2023-09-18T07:09:43;4.50;;;4.10;;
42194;SDS011;27863;49.440;11.102;2023-09-18T07:12:45;4.18;;;3.88;;
42194;SDS011;27863;49.440;11.102;2023-09-18T07:15:46;4.75;;;4.30;;
42194;SDS011;27863;49.440;11.102;2023-09-18T07:18:48;5.45;;;3.72;;
42194;SDS011;27863;49.440;11.102;2023-09-18T07:21:48;3.90;;;3.50;;
42194;SDS011;27863;49.440;11.102;2023-09-18T07:24:51;5.30;;;4.13;;
42194;SDS011;27863;49.440;11.102;2023-09-18T07:27:51;4.00;;;3.80;;
42194;SDS011;27863;49.440;11.102;2023-09-18T07:30:52;6.20;;;3.55;;
42194;SDS011;27863;49.440;11.102;2023-09-18T07:33:52;3.60;;;3.30;;
42194;SDS011;27863;49.440;11.102;2023-09-18T07:36:53;3.78;;;3.47;;
42194;SDS011;27863;49.440;11.102;2023-09-18T07:39:55;4.05;;;3.65;;
42194;SDS011;27863;49.440;11.102;2023-09-18T07:42:57;3.78;;;3.47;;
42194;SDS011;27863;49.440;11.102;2023-09-18T07:45:57;4.20;;;3.80;;
42194;SDS011;27863;49.440;11.102;2023-09-18T07:49:00;3.40;;;3.13;;
42194;SDS011;27863;49.440;11.102;2023-09-18T07:52:00;4.53;;;2.92;;
42194;SDS011;27863;49.440;11.102;2023-09-18T07:55:01;3.72;;;3.38;;
42194;SDS011;27863;49.440;11.102;2023-09-18T07:58:01;3.15;;;2.90;;
42194;SDS011;27863;49.440;11.102;2023-09-18T08:01:03;6.55;;;2.80;;
42194;SDS011;27863;49.440;11.102;2023-09-18T08:04:09;3.58;;;3.30;;
42194;SDS011;27863;49.440;11.102;2023-09-18T08:07:10;4.25;;;3.85;;
42194;SDS011;27863;49.440;11.102;2023-09-18T08:10:12;7.85;;;3.53;;
42194;SDS011;27863;49.440;11.102;2023-09-18T08:13:13;8.40;;;3.53;;
42194;SDS011;27863;49.440;11.102;2023-09-18T08:16:13;5.43;;;3.67;;
42194;SDS011;27863;49.440;11.102;2023-09-18T08:19:17;4.30;;;3.65;;
42194;SDS011;27863;49.440;11.102;2023-09-18T08:22:20;6.47;;;3.55;;
42194;SDS011;27863;49.440;11.102;2023-09-18T08:25:21;2.83;;;2.63;;
42194;SDS011;27863;49.440;11.102;2023-09-18T08:28:22;4.45;;;2.95;;
42194;SDS011;27863;49.440;11.102;2023-09-18T08:31:22;4.68;;;3.38;;
42194;SDS011;27863;49.440;11.102;2023-09-18T08:34:24;6.20;;;3.55;;
42194;SDS011;27863;49.440;11.102;2023-09-18T08:37:25;3.40;;;3.10;;
42194;SDS011;27863;49.440;11.102;2023-09-18T08:40:25;3.58;;;2.45;;
42194;SDS011;27863;49.440;11.102;2023-09-18T08:43:26;7.15;;;3.33;;
42194;SDS011;27863;49.440;11.102;2023-09-18T08:46:28;10.90;;;2.90;;
42194;SDS011;27863;49.440;11.102;2023-09-18T08:49:29;10.48;;;2.75;;
42194;SDS011;27863;49.440;11.102;2023-09-18T08:52:31;7.55;;;3.17;;
42194;SDS011;27863;49.440;11.102;2023-09-18T08:55:33;5.50;;;2.67;;
42194;SDS011;27863;49.440;11.102;2023-09-18T08:58:35;5.03;;;3.30;;
42194;SDS011;27863;49.440;11.102;2023-09-18T09:01:39;4.82;;;2.78;;
42194;SDS011;27863;49.440;11.102;2023-09-18T09:04:40;6.80;;;3.25;;
42194;SDS011;27863;49.440;11.102;2023-09-18T09:07:41;5.03;;;3.38;;
42194;SDS011;27863;49.440;11.102;2023-09-18T09:10:42;4.63;;;3.33;;
42194;SDS011;27863;49.440;11.102;2023-09-18T09:13:42;6.00;;;3.58;;
42194;SDS011;27863;49.440;11.102;2023-09-18T09:16:47;7.38;;;3.45;;
42194;SDS011;27863;49.440;11.102;2023-09-18T09:19:50;5.75;;;2.92;;
42194;SDS011;27863;49.440;11.102;2023-09-18T09:22:50;5.22;;;3.20;;
42194;SDS011;27863;49.440;11.102;2023-09-18T09:25:52;6.90;;;3.78;;
42194;SDS011;27863;49.440;11.102;2023-09-18T09:28:52;7.90;;;2.90;;
42194;SDS011;27863;49.440;11.102;2023-09-18T09:31:53;5.78;;;3.42;;
42194;SDS011;27863;49.440;11.102;2023-09-18T09:34:59;4.88;;;3.70;;
42194;SDS011;27863;49.440;11.102;2023-09-18T09:41:15;4.03;;;3.05;;
42194;SDS011;27863;49.440;11.102;2023-09-18T09:44:17;8.30;;;3.35;;
42194;SDS011;27863;49.440;11.102;2023-09-18T09:47:19;4.20;;;3.15;;
42194;SDS011;27863;49.440;11.102;2023-09-18T09:50:20;4.90;;;2.90;;
42194;SDS011;27863;49.440;11.102;2023-09-18T09:53:41;2.90;;;2.50;;
42194;SDS011;27863;49.440;11.102;2023-09-18T09:56:44;6.63;;;2.78;;
42194;SDS011;27863;49.440;11.102;2023-09-18T09:59:46;4.22;;;2.80;;
42194;SDS011;27863;49.440;11.102;2023-09-18T10:02:46;4.97;;;2.60;;
42194;SDS011;27863;49.440;11.102;2023-09-18T10:05:50;3.28;;;2.45;;
42194;SDS011;27863;49.440;11.102;2023-09-18T10:08:54;8.93;;;2.53;;
42194;SDS011;27863;49.440;11.102;2023-09-18T10:11:56;6.85;;;3.28;;
42194;SDS011;27863;49.440;11.102;2023-09-18T10:14:57;5.35;;;2.03;;
42194;SDS011;27863;49.440;11.102;2023-09-18T10:17:57;3.70;;;2.53;;
42194;SDS011;27863;49.440;11.102;2023-09-18T10:24:28;5.35;;;2.53;;
42194;SDS011;27863;49.440;11.102;2023-09-18T10:27:38;4.47;;;2.10;;
42194;SDS011;27863;49.440;11.102;2023-09-18T10:30:40;9.63;;;2.45;;
42194;SDS011;27863;49.440;11.102;2023-09-18T10:33:42;5.65;;;2.47;;
42194;SDS011;27863;49.440;11.102;2023-09-18T10:36:43;4.28;;;2.03;;
42194;SDS011;27863;49.440;11.102;2023-09-18T10:39:47;4.35;;;1.88;;
42194;SDS011;27863;49.440;11.102;2023-09-18T10:42:50;4.70;;;1.80;;
42194;SDS011;27863;49.440;11.102;2023-09-18T10:45:51;4.22;;;1.70;;
42194;SDS011;27863;49.440;11.102;2023-09-18T10:48:52;4.07;;;1.70;;
42194;SDS011;27863;49.440;11.102;2023-09-18T10:51:55;7.50;;;2.05;;
42194;SDS011;27863;49.440;11.102;2023-09-18T10:54:56;5.75;;;1.98;;
42194;SDS011;27863;49.440;11.102;2023-09-18T10:57:58;7.78;;;1.55;;
42194;SDS011;27863;49.440;11.102;2023-09-18T11:00:59;4.65;;;1.85;;
42194;SDS011;27863;49.440;11.102;2023-09-18T11:04:01;9.95;;;2.78;;
42194;SDS011;27863;49.440;11.102;2023-09-18T11:07:07;2.25;;;1.50;;
42194;SDS011;27863;49.440;11.102;2023-09-18T11:10:27;5.65;;;1.30;;
42194;SDS011;27863;49.440;11.102;2023-09-18T11:13:28;2.65;;;1.75;;
42194;SDS011;27863;49.440;11.102;2023-09-18T11:19:34;5.15;;;2.00;;
42194;SDS011;27863;49.440;11.102;2023-09-18T11:23:17;4.32;;;2.00;;
42194;SDS011;27863;49.440;11.102;2023-09-18T11:26:18;5.55;;;1.45;;
42194;SDS011;27863;49.440;11.102;2023-09-18T11:29:23;5.57;;;2.03;;
42194;SDS011;27863;49.440;11.102;2023-09-18T11:32:39;6.50;;;1.75;;
42194;SDS011;27863;49.440;11.102;2023-09-18T11:35:50;5.18;;;1.50;;
42194;SDS011;27863;49.440;11.102;2023-09-18T11:42:05;5.82;;;1.67;;
42194;SDS011;27863;49.440;11.102;2023-09-18T11:45:07;4.13;;;1.00;;
42194;SDS011;27863;49.440;11.102;2023-09-18T11:48:17;2.67;;;0.90;;
42194;SDS011;27863;49.440;11.102;2023-09-18T11:51:22;1.85;;;1.38;;
42194;SDS011;27863;49.440;11.102;2023-09-18T11:54:26;1.58;;;1.10;;
42194;SDS011;27863;49.440;11.102;2023-09-18T11:57:27;3.63;;;1.15;;
42194;SDS011;27863;49.440;11.102;2023-09-18T12:00:29;2.90;;;1.10;;
42194;SDS011;27863;49.440;11.102;2023-09-18T12:03:31;2.53;;;1.33;;
42194;SDS011;27863;49.440;11.102;2023-09-18T12:06:31;3.95;;;1.17;;
42194;SDS011;27863;49.440;11.102;2023-09-18T12:09:32;3.15;;;1.52;;
42194;SDS011;27863;49.440;11.102;2023-09-18T12:12:34;3.13;;;1.30;;
42194;SDS011;27863;49.440;11.102;2023-09-18T12:15:35;1.33;;;0.75;;
42194;SDS011;27863;49.440;11.102;2023-09-18T12:18:35;2.10;;;1.80;;
42194;SDS011;27863;49.440;11.102;2023-09-18T12:21:41;3.33;;;1.05;;
42194;SDS011;27863;49.440;11.102;2023-09-18T12:24:47;2.22;;;1.13;;
42194;SDS011;27863;49.440;11.102;2023-09-18T12:27:51;3.35;;;1.25;;
42194;SDS011;27863;49.440;11.102;2023-09-18T12:30:52;1.60;;;0.82;;
42194;SDS011;27863;49.440;11.102;2023-09-18T12:33:56;2.40;;;1.35;;
42194;SDS011;27863;49.440;11.102;2023-09-18T12:36:57;2.00;;;1.48;;
42194;SDS011;27863;49.440;11.102;2023-09-18T12:39:57;2.55;;;0.73;;
42194;SDS011;27863;49.440;11.102;2023-09-18T12:42:58;2.47;;;1.63;;
42194;SDS011;27863;49.440;11.102;2023-09-18T12:45:59;3.38;;;1.20;;
42194;SDS011;27863;49.440;11.102;2023-09-18T12:49:14;1.58;;;0.80;;
42194;SDS011;27863;49.440;11.102;2023-09-18T12:52:22;2.70;;;1.05;;
42194;SDS011;27863;49.440;11.102;2023-09-18T12:55:23;3.47;;;1.17;;
42194;SDS011;27863;49.440;11.102;2023-09-18T12:58:24;2.40;;;1.77;;
42194;SDS011;27863;49.440;11.102;2023-09-18T13:01:25;2.15;;;1.42;;
42194;SDS011;27863;49.440;11.102;2023-09-18T13:04:25;4.18;;;1.63;;
42194;SDS011;27863;49.440;11.102;2023-09-18T13:07:26;6.25;;;1.85;;
42194;SDS011;27863;49.440;11.102;2023-09-18T13:10:27;3.15;;;1.30;;
42194;SDS011;27863;49.440;11.102;2023-09-18T13:13:29;2.55;;;1.20;;
42194;SDS011;27863;49.440;11.102;2023-09-18T13:16:30;3.92;;;1.45;;
42194;SDS011;27863;49.440;11.102;2023-09-18T13:19:31;2.10;;;1.17;;
42194;SDS011;27863;49.440;11.102;2023-09-18T13:22:33;3.55;;;1.30;;
42194;SDS011;27863;49.440;11.102;2023-09-18T13:25:37;3.30;;;1.05;;
42194;SDS011;27863;49.440;11.102;2023-09-18T13:28:40;3.67;;;0.98;;
42194;SDS011;27863;49.440;11.102;2023-09-18T13:31:43;1.85;;;1.02;;
42194;SDS011;27863;49.440;11.102;2023-09-18T13:34:43;3.10;;;1.17;;
42194;SDS011;27863;49.440;11.102;2023-09-18T13:37:45;2.28;;;1.10;;
42194;SDS011;27863;49.440;11.102;2023-09-18T13:40:46;3.78;;;1.17;;
42194;SDS011;27863;49.440;11.102;2023-09-18T13:43:47;3.53;;;1.02;;
42194;SDS011;27863;49.440;11.102;2023-09-18T13:46:55;2.60;;;1.08;;
42194;SDS011;27863;49.440;11.102;2023-09-18T13:49:56;3.50;;;1.00;;
42194;SDS011;27863;49.440;11.102;2023-09-18T13:53:00;1.98;;;0.80;;
42194;SDS011;27863;49.440;11.102;2023-09-18T13:56:07;3.10;;;1.30;;
42194;SDS011;27863;49.440;11.102;2023-09-18T13:59:07;2.33;;;0.90;;
42194;SDS011;27863;49.440;11.102;2023-09-18T14:02:10;3.00;;;1.08;;
42194;SDS011;27863;49.440;11.102;2023-09-18T14:05:12;2.83;;;1.00;;
42194;SDS011;27863;49.440;11.102;2023-09-18T14:08:13;0.93;;;0.80;;
42194;SDS011;27863;49.440;11.102;2023-09-18T14:11:14;3.03;;;1.00;;
42194;SDS011;27863;49.440;11.102;2023-09-18T14:14:14;2.83;;;0.85;;
42194;SDS011;27863;49.440;11.102;2023-09-18T14:17:15;1.38;;;0.93;;
42194;SDS011;27863;49.440;11.102;2023-09-18T14:20:17;1.85;;;0.70;;
42194;SDS011;27863;49.440;11.102;2023-09-18T14:23:19;2.17;;;1.10;;
42194;SDS011;27863;49.440;11.102;2023-09-18T14:26:20;1.95;;;0.80;;
42194;SDS011;27863;49.440;11.102;2023-09-18T14:29:20;1.88;;;0.73;;
42194;SDS011;27863;49.440;11.102;2023-09-18T14:32:21;1.50;;;0.93;;
42194;SDS011;27863;49.440;11.102;2023-09-18T14:35:22;5.75;;;1.15;;
42194;SDS011;27863;49.440;11.102;2023-09-18T14:38:23;41.50;;;7.22;;
42194;SDS011;27863;49.440;11.102;2023-09-18T14:41:24;3.17;;;0.98;;
42194;SDS011;27863;49.440;11.102;2023-09-18T14:44:25;3.50;;;0.80;;
42194;SDS011;27863;49.440;11.102;2023-09-18T14:47:27;1.60;;;0.80;;
42194;SDS011;27863;49.440;11.102;2023-09-18T14:50:28;3.50;;;1.17;;
42194;SDS011;27863;49.440;11.102;2023-09-18T14:53:29;2.85;;;0.77;;
42194;SDS011;27863;49.440;11.102;2023-09-18T14:56:29;7.65;;;0.90;;
42194;SDS011;27863;49.440;11.102;2023-09-18T14:59:31;1.65;;;1.10;;
42194;SDS011;27863;49.440;11.102;2023-09-18T15:02:32;3.30;;;1.23;;
42194;SDS011;27863;49.440;11.102;2023-09-18T15:05:34;1.73;;;0.68;;
42194;SDS011;27863;49.440;11.102;2023-09-18T15:08:35;1.40;;;0.63;;
42194;SDS011;27863;49.440;11.102;2023-09-18T15:11:36;1.48;;;0.77;;
42194;SDS011;27863;49.440;11.102;2023-09-18T15:14:37;0.90;;;0.70;;
42194;SDS011;27863;49.440;11.102;2023-09-18T15:17:38;1.10;;;0.70;;
42194;SDS011;27863;49.440;11.102;2023-09-18T15:20:40;1.88;;;1.25;;
42194;SDS011;27863;49.440;11.102;2023-09-18T15:23:41;1.80;;;0.82;;
42194;SDS011;27863;49.440;11.102;2023-09-18T15:26:41;2.38;;;0.77;;
42194;SDS011;27863;49.440;11.102;2023-09-18T15:29:42;0.50;;;0.50;;
42194;SDS011;27863;49.440;11.102;2023-09-18T15:32:49;1.10;;;0.90;;
42194;SDS011;27863;49.440;11.102;2023-09-18T15:35:51;1.00;;;0.90;;
42194;SDS011;27863;49.440;11.102;2023-09-18T15:38:55;1.83;;;1.33;;
42194;SDS011;27863;49.440;11.102;2023-09-18T15:41:56;0.85;;;0.70;;
42194;SDS011;27863;49.440;11.102;2023-09-18T15:44:57;0.60;;;0.60;;
42194;SDS011;27863;49.440;11.102;2023-09-18T15:47:58;0.50;;;0.50;;
42194;SDS011;27863;49.440;11.102;2023-09-18T15:51:00;2.13;;;0.80;;
42194;SDS011;27863;49.440;11.102;2023-09-18T15:54:01;1.73;;;0.93;;
42194;SDS011;27863;49.440;11.102;2023-09-18T15:57:04;1.60;;;0.77;;
42194;SDS011;27863;49.440;11.102;2023-09-18T16:00:05;2.08;;;0.88;;
42194;SDS011;27863;49.440;11.102;2023-09-18T16:03:12;1.88;;;0.90;;
42194;SDS011;27863;49.440;11.102;2023-09-18T16:06:14;1.55;;;1.45;;
42194;SDS011;27863;49.440;11.102;2023-09-18T16:09:18;1.67;;;0.80;;
42194;SDS011;27863;49.440;11.102;2023-09-18T16:12:18;2.22;;;0.88;;
42194;SDS011;27863;49.440;11.102;2023-09-18T16:15:19;1.45;;;0.93;;
42194;SDS011;27863;49.440;11.102;2023-09-18T16:18:20;3.95;;;1.30;;
42194;SDS011;27863;49.440;11.102;2023-09-18T16:21:20;1.38;;;1.00;;
42194;SDS011;27863;49.440;11.102;2023-09-18T16:24:21;3.10;;;1.35;;
42194;SDS011;27863;49.440;11.102;2023-09-18T16:27:22;1.33;;;0.85;;
42194;SDS011;27863;49.440;11.102;2023-09-18T16:30:23;1.27;;;0.90;;
42194;SDS011;27863;49.440;11.102;2023-09-18T16:33:24;19.90;;;2.10;;
42194;SDS011;27863;49.440;11.102;2023-09-18T16:36:25;4.40;;;1.13;;
42194;SDS011;27863;49.440;11.102;2023-09-18T16:39:26;1.33;;;0.70;;
42194;SDS011;27863;49.440;11.102;2023-09-18T16:42:27;1.35;;;0.80;;
42194;SDS011;27863;49.440;11.102;2023-09-18T16:45:27;1.23;;;0.80;;
42194;SDS011;27863;49.440;11.102;2023-09-18T16:48:28;0.68;;;0.60;;
42194;SDS011;27863;49.440;11.102;2023-09-18T16:51:31;2.13;;;1.00;;
42194;SDS011;27863;49.440;11.102;2023-09-18T16:54:32;2.58;;;1.05;;
42194;SDS011;27863;49.440;11.102;2023-09-18T16:57:32;2.87;;;1.30;;
42194;SDS011;27863;49.440;11.102;2023-09-18T17:00:33;3.45;;;0.90;;
42194;SDS011;27863;49.440;11.102;2023-09-18T17:03:36;1.10;;;0.90;;
42194;SDS011;27863;49.440;11.102;2023-09-18T17:06:38;1.63;;;1.17;;
42194;SDS011;27863;49.440;11.102;2023-09-18T17:09:38;1.17;;;0.80;;
42194;SDS011;27863;49.440;11.102;2023-09-18T17:12:39;1.17;;;0.85;;
42194;SDS011;27863;49.440;11.102;2023-09-18T17:15:40;1.23;;;0.90;;
42194;SDS011;27863;49.440;11.102;2023-09-18T17:18:41;1.25;;;1.00;;
42194;SDS011;27863;49.440;11.102;2023-09-18T17:21:42;1.67;;;0.77;;
42194;SDS011;27863;49.440;11.102;2023-09-18T17:24:43;2.22;;;1.10;;
42194;SDS011;27863;49.440;11.102;2023-09-18T17:27:44;1.70;;;1.00;;
42194;SDS011;27863;49.440;11.102;2023-09-18T17:30:45;1.90;;;1.20;;
42194;SDS011;27863;49.440;11.102;2023-09-18T17:33:46;1.33;;;1.23;;
42194;SDS011;27863;49.440;11.102;2023-09-18T17:36:48;1.35;;;0.80;;
42194;SDS011;27863;49.440;11.102;2023-09-18T17:39:48;1.42;;;1.00;;
42194;SDS011;27863;49.440;11.102;2023-09-18T17:42:49;1.48;;;1.10;;
42194;SDS011;27863;49.440;11.102;2023-09-18T17:45:49;2.95;;;1.30;;
42194;SDS011;27863;49.440;11.102;2023-09-18T17:48:50;1.13;;;1.02;;
42194;SDS011;27863;49.440;11.102;2023-09-18T17:51:53;2.45;;;1.25;;
42194;SDS011;27863;49.440;11.102;2023-09-18T17:54:54;2.78;;;1.38;;
42194;SDS011;27863;49.440;11.102;2023-09-18T17:57:55;1.95;;;1.30;;
42194;SDS011;27863;49.440;11.102;2023-09-18T18:00:55;1.02;;;0.90;;
42194;SDS011;27863;49.440;11.102;2023-09-18T18:03:57;3.22;;;1.05;;
42194;SDS011;27863;49.440;11.102;2023-09-18T18:06:57;3.08;;;1.48;;
42194;SDS011;27863;49.440;11.102;2023-09-18T18:09:58;3.38;;;1.45;;
42194;SDS011;27863;49.440;11.102;2023-09-18T18:12:59;2.58;;;1.20;;
42194;SDS011;27863;49.440;11.102;2023-09-18T18:15:59;2.05;;;1.40;;